sensor_id;sensor_type;location;lat;lon;timestamp;P1;durP1;ratioP1;P2;durP2;ratioP2
18263;SDS011;9258;48.668;9.172;2022-07-30T00:01:47;4.53;;;2.65;;
18263;SDS011;9258;48.668;9.172;2022-07-30T00:04:48;5.03;;;2.75;;
18263;SDS011;9258;48.668;9.172;2022-07-30T00:07:50;9.38;;;3.78;;
18263;SDS011;9258;48.668;9.172;2022-07-30T00:10:51;8.18;;;3.03;;
18263;SDS011;9258;48.668;9.172;2022-07-30T00:13:53;3.50;;;3.20;;
18263;SDS011;9258;48.668;9.172;2022-07-30T00:16:56;4.05;;;2.85;;
18263;SDS011;9258;48.668;9.172;2022-07-30T00:19:57;4.75;;;2.92;;
18263;SDS011;9258;48.668;9.172;2022-07-30T00:23:01;3.35;;;3.05;;
18263;SDS011;9258;48.668;9.172;2022-07-30T00:26:03;4.97;;;3.10;;
18263;SDS011;9258;48.668;9.172;2022-07-30T00:29:05;5.20;;;3.17;;
18263;SDS011;9258;48.668;9.172;2022-07-30T00:32:08;4.20;;;2.65;;
18263;SDS011;9258;48.668;9.172;2022-07-30T00:35:09;3.50;;;2.83;;
18263;SDS011;9258;48.668;9.172;2022-07-30T00:38:11;3.17;;;2.88;;
18263;SDS011;9258;48.668;9.172;2022-07-30T00:41:12;3.85;;;3.35;;
18263;SDS011;9258;48.668;9.172;2022-07-30T00:44:13;4.55;;;2.80;;
18263;SDS011;9258;48.668;9.172;2022-07-30T00:47:16;6.25;;;3.20;;
18263;SDS011;9258;48.668;9.172;2022-07-30T00:50:18;4.30;;;3.22;;
18263;SDS011;9258;48.668;9.172;2022-07-30T00:53:19;3.40;;;2.67;;
18263;SDS011;9258;48.668;9.172;2022-07-30T00:56:23;4.45;;;2.78;;
18263;SDS011;9258;48.668;9.172;2022-07-30T00:59:24;6.18;;;2.78;;
18263;SDS011;9258;48.668;9.172;2022-07-30T01:02:28;3.20;;;2.88;;
18263;SDS011;9258;48.668;9.172;2022-07-30T01:05:29;2.90;;;2.60;;
18263;SDS011;9258;48.668;9.172;2022-07-30T01:08:31;4.13;;;2.70;;
18263;SDS011;9258;48.668;9.172;2022-07-30T01:11:34;4.97;;;3.00;;
18263;SDS011;9258;48.668;9.172;2022-07-30T01:14:37;6.85;;;2.75;;
18263;SDS011;9258;48.668;9.172;2022-07-30T01:17:40;4.10;;;3.15;;
18263;SDS011;9258;48.668;9.172;2022-07-30T01:20:43;4.65;;;2.88;;
18263;SDS011;9258;48.668;9.172;2022-07-30T01:24:11;6.10;;;2.90;;
18263;SDS011;9258;48.668;9.172;2022-07-30T01:27:23;4.22;;;3.03;;
18263;SDS011;9258;48.668;9.172;2022-07-30T01:30:29;3.70;;;2.70;;
18263;SDS011;9258;48.668;9.172;2022-07-30T01:33:32;4.18;;;3.17;;
18263;SDS011;9258;48.668;9.172;2022-07-30T01:36:37;5.00;;;2.70;;
18263;SDS011;9258;48.668;9.172;2022-07-30T01:39:40;5.75;;;3.20;;
18263;SDS011;9258;48.668;9.172;2022-07-30T01:42:45;3.65;;;3.08;;
18263;SDS011;9258;48.668;9.172;2022-07-30T01:45:48;5.95;;;3.17;;
18263;SDS011;9258;48.668;9.172;2022-07-30T01:48:51;4.13;;;3.17;;
18263;SDS011;9258;48.668;9.172;2022-07-30T01:51:54;5.72;;;3.03;;
18263;SDS011;9258;48.668;9.172;2022-07-30T01:54:58;3.30;;;3.00;;
18263;SDS011;9258;48.668;9.172;2022-07-30T01:58:02;5.30;;;3.30;;
18263;SDS011;9258;48.668;9.172;2022-07-30T02:01:05;5.03;;;3.17;;
18263;SDS011;9258;48.668;9.172;2022-07-30T02:04:07;3.95;;;3.50;;
18263;SDS011;9258;48.668;9.172;2022-07-30T02:07:11;8.10;;;3.50;;
18263;SDS011;9258;48.668;9.172;2022-07-30T02:10:18;5.43;;;3.40;;
18263;SDS011;9258;48.668;9.172;2022-07-30T02:13:25;5.65;;;3.05;;
18263;SDS011;9258;48.668;9.172;2022-07-30T02:16:30;4.60;;;3.28;;
18263;SDS011;9258;48.668;9.172;2022-07-30T02:19:37;3.65;;;3.08;;
18263;SDS011;9258;48.668;9.172;2022-07-30T02:22:45;3.53;;;3.13;;
18263;SDS011;9258;48.668;9.172;2022-07-30T02:25:49;5.72;;;3.10;;
18263;SDS011;9258;48.668;9.172;2022-07-30T02:28:53;4.68;;;3.10;;
18263;SDS011;9258;48.668;9.172;2022-07-30T02:31:59;5.38;;;3.17;;
18263;SDS011;9258;48.668;9.172;2022-07-30T02:35:06;5.10;;;3.25;;
18263;SDS011;9258;48.668;9.172;2022-07-30T02:38:12;3.60;;;3.13;;
18263;SDS011;9258;48.668;9.172;2022-07-30T02:41:16;3.80;;;2.92;;
18263;SDS011;9258;48.668;9.172;2022-07-30T02:44:22;4.40;;;3.50;;
18263;SDS011;9258;48.668;9.172;2022-07-30T02:47:24;3.60;;;3.30;;
18263;SDS011;9258;48.668;9.172;2022-07-30T02:50:27;4.35;;;3.15;;
18263;SDS011;9258;48.668;9.172;2022-07-30T02:53:30;5.25;;;3.85;;
18263;SDS011;9258;48.668;9.172;2022-07-30T02:56:33;8.48;;;3.75;;
18263;SDS011;9258;48.668;9.172;2022-07-30T02:59:38;3.90;;;3.50;;
18263;SDS011;9258;48.668;9.172;2022-07-30T03:02:42;4.75;;;3.55;;
18263;SDS011;9258;48.668;9.172;2022-07-30T03:05:44;5.43;;;3.72;;
18263;SDS011;9258;48.668;9.172;2022-07-30T03:08:49;4.65;;;3.78;;
18263;SDS011;9258;48.668;9.172;2022-07-30T03:11:51;5.10;;;4.07;;
18263;SDS011;9258;48.668;9.172;2022-07-30T03:14:56;5.03;;;3.72;;
18263;SDS011;9258;48.668;9.172;2022-07-30T03:17:58;4.28;;;3.90;;
18263;SDS011;9258;48.668;9.172;2022-07-30T03:21:01;4.57;;;4.05;;
18263;SDS011;9258;48.668;9.172;2022-07-30T03:24:05;6.03;;;3.92;;
18263;SDS011;9258;48.668;9.172;2022-07-30T03:27:09;4.32;;;4.00;;
18263;SDS011;9258;48.668;9.172;2022-07-30T03:30:14;4.95;;;3.90;;
18263;SDS011;9258;48.668;9.172;2022-07-30T03:33:15;4.05;;;3.70;;
18263;SDS011;9258;48.668;9.172;2022-07-30T03:36:18;4.45;;;4.05;;
18263;SDS011;9258;48.668;9.172;2022-07-30T03:39:20;5.80;;;4.03;;
18263;SDS011;9258;48.668;9.172;2022-07-30T03:42:23;4.03;;;3.65;;
18263;SDS011;9258;48.668;9.172;2022-07-30T03:45:27;4.97;;;4.53;;
18263;SDS011;9258;48.668;9.172;2022-07-30T03:48:29;4.72;;;3.97;;
18263;SDS011;9258;48.668;9.172;2022-07-30T03:51:31;6.25;;;4.45;;
18263;SDS011;9258;48.668;9.172;2022-07-30T03:54:33;5.78;;;4.40;;
18263;SDS011;9258;48.668;9.172;2022-07-30T03:57:36;5.50;;;4.80;;
18263;SDS011;9258;48.668;9.172;2022-07-30T04:00:39;7.78;;;4.20;;
18263;SDS011;9258;48.668;9.172;2022-07-30T04:03:41;4.70;;;4.25;;
18263;SDS011;9258;48.668;9.172;2022-07-30T04:06:43;5.10;;;4.50;;
18263;SDS011;9258;48.668;9.172;2022-07-30T04:09:44;6.47;;;4.45;;
18263;SDS011;9258;48.668;9.172;2022-07-30T04:12:45;5.15;;;4.35;;
18263;SDS011;9258;48.668;9.172;2022-07-30T04:15:50;4.90;;;4.50;;
18263;SDS011;9258;48.668;9.172;2022-07-30T04:18:58;4.72;;;4.32;;
18263;SDS011;9258;48.668;9.172;2022-07-30T04:22:03;5.03;;;4.38;;
18263;SDS011;9258;48.668;9.172;2022-07-30T04:25:08;5.30;;;4.35;;
18263;SDS011;9258;48.668;9.172;2022-07-30T04:28:10;6.38;;;4.20;;
18263;SDS011;9258;48.668;9.172;2022-07-30T04:31:13;6.38;;;4.53;;
18263;SDS011;9258;48.668;9.172;2022-07-30T04:34:15;4.90;;;4.03;;
18263;SDS011;9258;48.668;9.172;2022-07-30T04:37:17;7.70;;;4.60;;
18263;SDS011;9258;48.668;9.172;2022-07-30T04:40:21;5.18;;;4.28;;
18263;SDS011;9258;48.668;9.172;2022-07-30T04:43:22;5.07;;;4.30;;
18263;SDS011;9258;48.668;9.172;2022-07-30T04:46:25;6.18;;;4.20;;
18263;SDS011;9258;48.668;9.172;2022-07-30T04:49:26;6.57;;;4.13;;
18263;SDS011;9258;48.668;9.172;2022-07-30T04:52:28;5.32;;;4.47;;
18263;SDS011;9258;48.668;9.172;2022-07-30T04:55:30;5.05;;;4.43;;
18263;SDS011;9258;48.668;9.172;2022-07-30T04:58:34;6.05;;;4.13;;
18263;SDS011;9258;48.668;9.172;2022-07-30T05:01:41;4.80;;;4.30;;
18263;SDS011;9258;48.668;9.172;2022-07-30T05:04:46;4.40;;;4.00;;
18263;SDS011;9258;48.668;9.172;2022-07-30T05:07:49;8.38;;;4.50;;
18263;SDS011;9258;48.668;9.172;2022-07-30T05:10:51;4.82;;;4.35;;
18263;SDS011;9258;48.668;9.172;2022-07-30T05:13:52;5.20;;;4.28;;
18263;SDS011;9258;48.668;9.172;2022-07-30T05:16:55;4.25;;;3.85;;
18263;SDS011;9258;48.668;9.172;2022-07-30T05:19:56;4.43;;;3.70;;
18263;SDS011;9258;48.668;9.172;2022-07-30T05:22:58;5.68;;;3.95;;
18263;SDS011;9258;48.668;9.172;2022-07-30T05:26:00;4.22;;;3.40;;
18263;SDS011;9258;48.668;9.172;2022-07-30T05:29:02;5.82;;;3.65;;
18263;SDS011;9258;48.668;9.172;2022-07-30T05:32:05;8.05;;;4.47;;
18263;SDS011;9258;48.668;9.172;2022-07-30T05:35:07;7.13;;;3.65;;
18263;SDS011;9258;48.668;9.172;2022-07-30T05:38:09;7.25;;;4.05;;
18263;SDS011;9258;48.668;9.172;2022-07-30T05:41:10;6.70;;;4.00;;
18263;SDS011;9258;48.668;9.172;2022-07-30T05:44:12;4.30;;;3.47;;
18263;SDS011;9258;48.668;9.172;2022-07-30T05:47:14;5.32;;;3.70;;
18263;SDS011;9258;48.668;9.172;2022-07-30T05:50:17;4.75;;;3.55;;
18263;SDS011;9258;48.668;9.172;2022-07-30T05:53:18;6.20;;;3.85;;
18263;SDS011;9258;48.668;9.172;2022-07-30T05:56:20;5.22;;;3.80;;
18263;SDS011;9258;48.668;9.172;2022-07-30T05:59:21;4.38;;;3.95;;
18263;SDS011;9258;48.668;9.172;2022-07-30T06:02:24;5.25;;;3.70;;
18263;SDS011;9258;48.668;9.172;2022-07-30T06:05:25;7.07;;;4.30;;
18263;SDS011;9258;48.668;9.172;2022-07-30T06:08:27;6.20;;;4.55;;
18263;SDS011;9258;48.668;9.172;2022-07-30T06:11:29;4.63;;;3.78;;
18263;SDS011;9258;48.668;9.172;2022-07-30T06:14:30;5.90;;;3.70;;
18263;SDS011;9258;48.668;9.172;2022-07-30T06:17:35;9.38;;;3.95;;
18263;SDS011;9258;48.668;9.172;2022-07-30T06:20:41;7.13;;;3.92;;
18263;SDS011;9258;48.668;9.172;2022-07-30T06:23:42;8.32;;;4.10;;
18263;SDS011;9258;48.668;9.172;2022-07-30T06:26:44;6.00;;;4.07;;
18263;SDS011;9258;48.668;9.172;2022-07-30T06:29:45;5.35;;;4.60;;
18263;SDS011;9258;48.668;9.172;2022-07-30T06:32:48;5.13;;;4.18;;
18263;SDS011;9258;48.668;9.172;2022-07-30T06:35:49;11.20;;;4.30;;
18263;SDS011;9258;48.668;9.172;2022-07-30T06:38:51;4.65;;;4.15;;
18263;SDS011;9258;48.668;9.172;2022-07-30T06:41:52;7.65;;;4.75;;
18263;SDS011;9258;48.668;9.172;2022-07-30T06:44:54;7.75;;;4.40;;
18263;SDS011;9258;48.668;9.172;2022-07-30T06:47:57;4.78;;;4.18;;
18263;SDS011;9258;48.668;9.172;2022-07-30T06:50:59;7.18;;;4.60;;
18263;SDS011;9258;48.668;9.172;2022-07-30T06:54:00;5.38;;;4.50;;
18263;SDS011;9258;48.668;9.172;2022-07-30T06:57:02;5.70;;;4.88;;
18263;SDS011;9258;48.668;9.172;2022-07-30T07:00:04;5.85;;;4.72;;
18263;SDS011;9258;48.668;9.172;2022-07-30T07:03:08;6.72;;;4.93;;
18263;SDS011;9258;48.668;9.172;2022-07-30T07:06:09;6.18;;;4.10;;
18263;SDS011;9258;48.668;9.172;2022-07-30T07:09:11;7.45;;;4.97;;
18263;SDS011;9258;48.668;9.172;2022-07-30T07:12:12;7.40;;;4.47;;
18263;SDS011;9258;48.668;9.172;2022-07-30T07:15:14;7.03;;;4.43;;
18263;SDS011;9258;48.668;9.172;2022-07-30T07:18:17;6.13;;;4.05;;
18263;SDS011;9258;48.668;9.172;2022-07-30T07:21:18;7.22;;;4.90;;
18263;SDS011;9258;48.668;9.172;2022-07-30T07:24:20;5.25;;;3.40;;
18263;SDS011;9258;48.668;9.172;2022-07-30T07:27:22;5.25;;;4.75;;
18263;SDS011;9258;48.668;9.172;2022-07-30T07:30:23;8.02;;;4.20;;
18263;SDS011;9258;48.668;9.172;2022-07-30T07:33:26;6.85;;;3.80;;
18263;SDS011;9258;48.668;9.172;2022-07-30T07:36:28;6.93;;;3.67;;
18263;SDS011;9258;48.668;9.172;2022-07-30T07:39:29;5.53;;;3.47;;
18263;SDS011;9258;48.668;9.172;2022-07-30T07:42:31;5.22;;;3.80;;
18263;SDS011;9258;48.668;9.172;2022-07-30T07:45:32;10.55;;;3.90;;
18263;SDS011;9258;48.668;9.172;2022-07-30T07:48:35;8.15;;;3.97;;
18263;SDS011;9258;48.668;9.172;2022-07-30T07:51:38;7.15;;;3.58;;
18263;SDS011;9258;48.668;9.172;2022-07-30T07:54:39;4.82;;;3.40;;
18263;SDS011;9258;48.668;9.172;2022-07-30T07:57:43;3.78;;;2.78;;
18263;SDS011;9258;48.668;9.172;2022-07-30T08:00:47;4.45;;;3.00;;
18263;SDS011;9258;48.668;9.172;2022-07-30T08:03:49;3.35;;;2.78;;
18263;SDS011;9258;48.668;9.172;2022-07-30T08:06:51;3.97;;;2.70;;
18263;SDS011;9258;48.668;9.172;2022-07-30T08:09:53;6.53;;;2.78;;
18263;SDS011;9258;48.668;9.172;2022-07-30T08:12:54;4.55;;;2.63;;
18263;SDS011;9258;48.668;9.172;2022-07-30T08:15:56;3.72;;;2.22;;
18263;SDS011;9258;48.668;9.172;2022-07-30T08:18:58;4.30;;;2.78;;
18263;SDS011;9258;48.668;9.172;2022-07-30T08:22:00;3.50;;;2.50;;
18263;SDS011;9258;48.668;9.172;2022-07-30T08:25:02;3.88;;;2.78;;
18263;SDS011;9258;48.668;9.172;2022-07-30T08:28:04;4.38;;;2.70;;
18263;SDS011;9258;48.668;9.172;2022-07-30T08:31:05;6.95;;;3.03;;
18263;SDS011;9258;48.668;9.172;2022-07-30T08:34:08;3.60;;;2.92;;
18263;SDS011;9258;48.668;9.172;2022-07-30T08:37:10;5.63;;;3.38;;
18263;SDS011;9258;48.668;9.172;2022-07-30T08:40:11;4.65;;;2.83;;
18263;SDS011;9258;48.668;9.172;2022-07-30T08:43:12;3.90;;;2.60;;
18263;SDS011;9258;48.668;9.172;2022-07-30T08:46:15;5.80;;;2.60;;
18263;SDS011;9258;48.668;9.172;2022-07-30T08:49:20;3.75;;;2.50;;
18263;SDS011;9258;48.668;9.172;2022-07-30T08:52:22;3.05;;;2.42;;
18263;SDS011;9258;48.668;9.172;2022-07-30T08:55:24;4.63;;;2.80;;
18263;SDS011;9258;48.668;9.172;2022-07-30T08:58:26;3.28;;;2.03;;
18263;SDS011;9258;48.668;9.172;2022-07-30T09:01:29;6.43;;;2.78;;
18263;SDS011;9258;48.668;9.172;2022-07-30T09:04:33;5.03;;;2.72;;
18263;SDS011;9258;48.668;9.172;2022-07-30T09:07:35;4.57;;;2.63;;
18263;SDS011;9258;48.668;9.172;2022-07-30T09:10:36;4.68;;;2.70;;
18263;SDS011;9258;48.668;9.172;2022-07-30T09:13:39;3.63;;;2.13;;
18263;SDS011;9258;48.668;9.172;2022-07-30T09:16:42;3.88;;;2.30;;
18263;SDS011;9258;48.668;9.172;2022-07-30T09:19:46;5.55;;;2.00;;
18263;SDS011;9258;48.668;9.172;2022-07-30T09:23:03;3.50;;;2.10;;
18263;SDS011;9258;48.668;9.172;2022-07-30T09:26:05;4.30;;;2.35;;
18263;SDS011;9258;48.668;9.172;2022-07-30T09:29:16;3.47;;;2.00;;
18263;SDS011;9258;48.668;9.172;2022-07-30T09:32:18;2.97;;;1.92;;
18263;SDS011;9258;48.668;9.172;2022-07-30T09:35:22;2.85;;;1.80;;
18263;SDS011;9258;48.668;9.172;2022-07-30T09:38:23;3.63;;;2.50;;
18263;SDS011;9258;48.668;9.172;2022-07-30T09:41:30;2.40;;;1.90;;
18263;SDS011;9258;48.668;9.172;2022-07-30T09:44:35;4.22;;;2.20;;
18263;SDS011;9258;48.668;9.172;2022-07-30T09:47:37;4.82;;;2.33;;
18263;SDS011;9258;48.668;9.172;2022-07-30T09:50:41;4.85;;;1.98;;
18263;SDS011;9258;48.668;9.172;2022-07-30T09:53:54;8.18;;;2.30;;
18263;SDS011;9258;48.668;9.172;2022-07-30T09:57:02;2.80;;;2.17;;
18263;SDS011;9258;48.668;9.172;2022-07-30T10:00:16;3.25;;;2.10;;
18263;SDS011;9258;48.668;9.172;2022-07-30T10:03:20;5.93;;;2.08;;
18263;SDS011;9258;48.668;9.172;2022-07-30T10:06:32;4.10;;;1.90;;
18263;SDS011;9258;48.668;9.172;2022-07-30T10:09:34;3.70;;;2.00;;
18263;SDS011;9258;48.668;9.172;2022-07-30T10:12:36;2.63;;;2.10;;
18263;SDS011;9258;48.668;9.172;2022-07-30T10:15:38;4.88;;;2.35;;
18263;SDS011;9258;48.668;9.172;2022-07-30T10:18:40;2.97;;;1.63;;
18263;SDS011;9258;48.668;9.172;2022-07-30T10:21:44;3.10;;;1.70;;
18263;SDS011;9258;48.668;9.172;2022-07-30T10:24:45;3.58;;;1.90;;
18263;SDS011;9258;48.668;9.172;2022-07-30T10:27:48;2.75;;;1.80;;
18263;SDS011;9258;48.668;9.172;2022-07-30T10:30:51;4.68;;;2.00;;
18263;SDS011;9258;48.668;9.172;2022-07-30T10:33:53;6.65;;;1.83;;
18263;SDS011;9258;48.668;9.172;2022-07-30T10:36:58;2.03;;;1.73;;
18263;SDS011;9258;48.668;9.172;2022-07-30T10:40:03;4.78;;;2.42;;
18263;SDS011;9258;48.668;9.172;2022-07-30T10:43:16;2.17;;;1.80;;
18263;SDS011;9258;48.668;9.172;2022-07-30T10:46:51;2.60;;;2.10;;
18263;SDS011;9258;48.668;9.172;2022-07-30T10:50:03;2.95;;;1.90;;
18263;SDS011;9258;48.668;9.172;2022-07-30T10:53:08;3.03;;;2.17;;
18263;SDS011;9258;48.668;9.172;2022-07-30T10:56:11;3.83;;;1.90;;
18263;SDS011;9258;48.668;9.172;2022-07-30T10:59:14;2.53;;;1.85;;
18263;SDS011;9258;48.668;9.172;2022-07-30T11:02:16;2.50;;;1.90;;
18263;SDS011;9258;48.668;9.172;2022-07-30T11:05:22;3.63;;;1.80;;
18263;SDS011;9258;48.668;9.172;2022-07-30T11:08:30;2.53;;;2.00;;
18263;SDS011;9258;48.668;9.172;2022-07-30T11:11:42;2.83;;;2.30;;
18263;SDS011;9258;48.668;9.172;2022-07-30T11:14:54;3.42;;;1.85;;
18263;SDS011;9258;48.668;9.172;2022-07-30T11:17:58;2.90;;;2.17;;
18263;SDS011;9258;48.668;9.172;2022-07-30T11:21:13;2.30;;;2.00;;
18263;SDS011;9258;48.668;9.172;2022-07-30T11:27:45;3.20;;;1.80;;
18263;SDS011;9258;48.668;9.172;2022-07-30T11:30:47;4.90;;;1.90;;
18263;SDS011;9258;48.668;9.172;2022-07-30T11:33:51;3.53;;;2.28;;
18263;SDS011;9258;48.668;9.172;2022-07-30T11:37:03;3.40;;;2.00;;
18263;SDS011;9258;48.668;9.172;2022-07-30T11:40:08;2.65;;;1.70;;
18263;SDS011;9258;48.668;9.172;2022-07-30T11:43:18;2.38;;;2.00;;
18263;SDS011;9258;48.668;9.172;2022-07-30T11:46:22;2.30;;;1.70;;
18263;SDS011;9258;48.668;9.172;2022-07-30T11:49:24;3.25;;;1.70;;
18263;SDS011;9258;48.668;9.172;2022-07-30T11:52:26;2.03;;;1.45;;
18263;SDS011;9258;48.668;9.172;2022-07-30T11:55:29;3.17;;;1.60;;
18263;SDS011;9258;48.668;9.172;2022-07-30T11:58:34;6.60;;;2.42;;
18263;SDS011;9258;48.668;9.172;2022-07-30T12:01:37;2.45;;;1.42;;
18263;SDS011;9258;48.668;9.172;2022-07-30T12:04:41;2.80;;;1.50;;
18263;SDS011;9258;48.668;9.172;2022-07-30T12:07:43;1.70;;;1.60;;
18263;SDS011;9258;48.668;9.172;2022-07-30T12:10:55;2.35;;;1.73;;
18263;SDS011;9258;48.668;9.172;2022-07-30T12:13:59;2.33;;;1.60;;
18263;SDS011;9258;48.668;9.172;2022-07-30T12:17:01;3.72;;;2.33;;
18263;SDS011;9258;48.668;9.172;2022-07-30T12:20:12;2.92;;;1.65;;
18263;SDS011;9258;48.668;9.172;2022-07-30T12:23:16;3.20;;;1.80;;
18263;SDS011;9258;48.668;9.172;2022-07-30T12:26:23;2.17;;;1.98;;
18263;SDS011;9258;48.668;9.172;2022-07-30T12:29:25;3.33;;;1.75;;
18263;SDS011;9258;48.668;9.172;2022-07-30T12:32:27;2.70;;;1.75;;
18263;SDS011;9258;48.668;9.172;2022-07-30T12:35:43;2.13;;;1.70;;
18263;SDS011;9258;48.668;9.172;2022-07-30T12:38:45;2.30;;;1.63;;
18263;SDS011;9258;48.668;9.172;2022-07-30T12:41:51;2.40;;;2.05;;
18263;SDS011;9258;48.668;9.172;2022-07-30T12:44:54;2.90;;;1.80;;
18263;SDS011;9258;48.668;9.172;2022-07-30T12:47:57;1.80;;;1.65;;
18263;SDS011;9258;48.668;9.172;2022-07-30T12:51:02;1.80;;;1.65;;
18263;SDS011;9258;48.668;9.172;2022-07-30T12:54:13;1.70;;;1.55;;
18263;SDS011;9258;48.668;9.172;2022-07-30T12:57:18;1.90;;;1.70;;
18263;SDS011;9258;48.668;9.172;2022-07-30T13:00:19;6.05;;;1.90;;
18263;SDS011;9258;48.668;9.172;2022-07-30T13:03:23;2.95;;;1.65;;
18263;SDS011;9258;48.668;9.172;2022-07-30T13:06:25;2.00;;;1.80;;
18263;SDS011;9258;48.668;9.172;2022-07-30T13:09:27;2.75;;;1.73;;
18263;SDS011;9258;48.668;9.172;2022-07-30T13:12:30;2.40;;;1.55;;
18263;SDS011;9258;48.668;9.172;2022-07-30T13:15:31;1.90;;;1.67;;
18263;SDS011;9258;48.668;9.172;2022-07-30T13:18:33;1.92;;;1.70;;
18263;SDS011;9258;48.668;9.172;2022-07-30T13:21:36;1.88;;;1.77;;
18263;SDS011;9258;48.668;9.172;2022-07-30T13:24:38;1.90;;;1.80;;
18263;SDS011;9258;48.668;9.172;2022-07-30T13:27:42;1.88;;;1.48;;
18263;SDS011;9258;48.668;9.172;2022-07-30T13:30:44;1.70;;;1.60;;
18263;SDS011;9258;48.668;9.172;2022-07-30T13:33:46;2.45;;;1.50;;
18263;SDS011;9258;48.668;9.172;2022-07-30T13:36:47;2.25;;;1.80;;
18263;SDS011;9258;48.668;9.172;2022-07-30T13:39:48;2.08;;;1.77;;
18263;SDS011;9258;48.668;9.172;2022-07-30T13:42:51;1.73;;;1.63;;
18263;SDS011;9258;48.668;9.172;2022-07-30T13:45:53;3.97;;;1.60;;
18263;SDS011;9258;48.668;9.172;2022-07-30T13:48:55;1.60;;;1.50;;
18263;SDS011;9258;48.668;9.172;2022-07-30T13:51:56;2.45;;;1.60;;
18263;SDS011;9258;48.668;9.172;2022-07-30T13:54:58;1.67;;;1.33;;
18263;SDS011;9258;48.668;9.172;2022-07-30T13:58:01;1.70;;;1.20;;
18263;SDS011;9258;48.668;9.172;2022-07-30T14:01:02;1.98;;;1.48;;
18263;SDS011;9258;48.668;9.172;2022-07-30T14:04:05;2.80;;;1.65;;
18263;SDS011;9258;48.668;9.172;2022-07-30T14:07:07;2.30;;;1.58;;
18263;SDS011;9258;48.668;9.172;2022-07-30T14:10:09;1.60;;;1.40;;
18263;SDS011;9258;48.668;9.172;2022-07-30T14:13:12;3.05;;;1.48;;
18263;SDS011;9258;48.668;9.172;2022-07-30T14:16:13;4.20;;;1.30;;
18263;SDS011;9258;48.668;9.172;2022-07-30T14:19:15;2.65;;;2.30;;
18263;SDS011;9258;48.668;9.172;2022-07-30T14:22:17;2.35;;;1.45;;
18263;SDS011;9258;48.668;9.172;2022-07-30T14:25:19;4.20;;;2.00;;
18263;SDS011;9258;48.668;9.172;2022-07-30T14:28:23;2.88;;;1.50;;
18263;SDS011;9258;48.668;9.172;2022-07-30T14:31:24;2.78;;;1.63;;
18263;SDS011;9258;48.668;9.172;2022-07-30T14:34:26;2.90;;;1.65;;
18263;SDS011;9258;48.668;9.172;2022-07-30T14:37:27;2.88;;;1.55;;
18263;SDS011;9258;48.668;9.172;2022-07-30T14:40:29;2.05;;;1.60;;
18263;SDS011;9258;48.668;9.172;2022-07-30T14:43:32;1.65;;;1.48;;
18263;SDS011;9258;48.668;9.172;2022-07-30T14:46:33;2.47;;;1.70;;
18263;SDS011;9258;48.668;9.172;2022-07-30T14:49:35;3.35;;;1.90;;
18263;SDS011;9258;48.668;9.172;2022-07-30T14:52:37;3.17;;;1.27;;
18263;SDS011;9258;48.668;9.172;2022-07-30T14:55:38;1.92;;;1.30;;
18263;SDS011;9258;48.668;9.172;2022-07-30T14:58:41;3.67;;;1.50;;
18263;SDS011;9258;48.668;9.172;2022-07-30T15:01:43;2.85;;;1.50;;
18263;SDS011;9258;48.668;9.172;2022-07-30T15:04:46;3.60;;;1.75;;
18263;SDS011;9258;48.668;9.172;2022-07-30T15:07:47;3.17;;;1.55;;
18263;SDS011;9258;48.668;9.172;2022-07-30T15:10:49;2.10;;;1.48;;
18263;SDS011;9258;48.668;9.172;2022-07-30T15:13:52;1.85;;;1.42;;
18263;SDS011;9258;48.668;9.172;2022-07-30T15:16:53;1.88;;;1.33;;
18263;SDS011;9258;48.668;9.172;2022-07-30T15:19:55;3.42;;;1.20;;
18263;SDS011;9258;48.668;9.172;2022-07-30T15:22:56;1.42;;;1.30;;
18263;SDS011;9258;48.668;9.172;2022-07-30T15:25:58;1.50;;;1.20;;
18263;SDS011;9258;48.668;9.172;2022-07-30T15:29:00;2.47;;;1.30;;
18263;SDS011;9258;48.668;9.172;2022-07-30T15:32:02;1.73;;;1.30;;
18263;SDS011;9258;48.668;9.172;2022-07-30T15:35:04;3.08;;;1.30;;
18263;SDS011;9258;48.668;9.172;2022-07-30T15:38:06;2.05;;;1.42;;
18263;SDS011;9258;48.668;9.172;2022-07-30T15:41:07;2.85;;;1.13;;
18263;SDS011;9258;48.668;9.172;2022-07-30T15:44:11;1.60;;;1.33;;
18263;SDS011;9258;48.668;9.172;2022-07-30T15:47:13;2.13;;;1.15;;
18263;SDS011;9258;48.668;9.172;2022-07-30T15:50:15;1.90;;;1.30;;
18263;SDS011;9258;48.668;9.172;2022-07-30T15:53:17;3.38;;;1.30;;
18263;SDS011;9258;48.668;9.172;2022-07-30T15:56:18;1.45;;;1.30;;
18263;SDS011;9258;48.668;9.172;2022-07-30T15:59:21;2.33;;;1.60;;
18263;SDS011;9258;48.668;9.172;2022-07-30T16:02:23;2.42;;;1.30;;
18263;SDS011;9258;48.668;9.172;2022-07-30T16:05:24;1.70;;;1.50;;
18263;SDS011;9258;48.668;9.172;2022-07-30T16:08:26;2.72;;;2.40;;
18263;SDS011;9258;48.668;9.172;2022-07-30T16:11:28;3.38;;;2.45;;
18263;SDS011;9258;48.668;9.172;2022-07-30T16:14:31;2.53;;;1.63;;
18263;SDS011;9258;48.668;9.172;2022-07-30T16:17:32;1.80;;;1.48;;
18263;SDS011;9258;48.668;9.172;2022-07-30T16:20:34;2.75;;;1.50;;
18263;SDS011;9258;48.668;9.172;2022-07-30T16:23:35;1.83;;;1.45;;
18263;SDS011;9258;48.668;9.172;2022-07-30T16:26:38;1.55;;;1.40;;
18263;SDS011;9258;48.668;9.172;2022-07-30T16:29:41;2.72;;;1.40;;
18263;SDS011;9258;48.668;9.172;2022-07-30T16:32:42;2.60;;;1.38;;
18263;SDS011;9258;48.668;9.172;2022-07-30T16:35:44;5.97;;;1.70;;
18263;SDS011;9258;48.668;9.172;2022-07-30T16:38:45;2.80;;;1.40;;
18263;SDS011;9258;48.668;9.172;2022-07-30T16:41:47;2.90;;;1.48;;
18263;SDS011;9258;48.668;9.172;2022-07-30T16:44:50;1.70;;;1.40;;
18263;SDS011;9258;48.668;9.172;2022-07-30T16:47:51;1.85;;;1.45;;
18263;SDS011;9258;48.668;9.172;2022-07-30T16:50:53;3.63;;;2.13;;
18263;SDS011;9258;48.668;9.172;2022-07-30T16:53:55;4.88;;;2.10;;
18263;SDS011;9258;48.668;9.172;2022-07-30T16:56:56;2.38;;;2.17;;
18263;SDS011;9258;48.668;9.172;2022-07-30T17:00:00;2.00;;;1.50;;
18263;SDS011;9258;48.668;9.172;2022-07-30T17:03:02;2.88;;;1.48;;
18263;SDS011;9258;48.668;9.172;2022-07-30T17:06:03;3.47;;;1.20;;
18263;SDS011;9258;48.668;9.172;2022-07-30T17:09:05;1.33;;;1.23;;
18263;SDS011;9258;48.668;9.172;2022-07-30T17:12:07;1.63;;;0.90;;
18263;SDS011;9258;48.668;9.172;2022-07-30T17:15:11;1.08;;;1.00;;
18263;SDS011;9258;48.668;9.172;2022-07-30T17:18:12;2.60;;;0.90;;
18263;SDS011;9258;48.668;9.172;2022-07-30T17:21:14;1.70;;;0.95;;
18263;SDS011;9258;48.668;9.172;2022-07-30T17:24:16;1.33;;;1.05;;
18263;SDS011;9258;48.668;9.172;2022-07-30T17:27:17;2.25;;;1.17;;
18263;SDS011;9258;48.668;9.172;2022-07-30T17:30:20;6.85;;;1.20;;
18263;SDS011;9258;48.668;9.172;2022-07-30T17:33:22;1.75;;;1.00;;
18263;SDS011;9258;48.668;9.172;2022-07-30T17:36:24;1.45;;;1.10;;
18263;SDS011;9258;48.668;9.172;2022-07-30T17:39:28;2.08;;;1.25;;
18263;SDS011;9258;48.668;9.172;2022-07-30T17:42:30;2.35;;;0.80;;
18263;SDS011;9258;48.668;9.172;2022-07-30T17:45:33;1.52;;;1.10;;
18263;SDS011;9258;48.668;9.172;2022-07-30T17:48:36;1.88;;;1.00;;
18263;SDS011;9258;48.668;9.172;2022-07-30T17:51:37;3.00;;;1.17;;
18263;SDS011;9258;48.668;9.172;2022-07-30T17:54:38;2.65;;;1.20;;
18263;SDS011;9258;48.668;9.172;2022-07-30T17:57:40;2.30;;;1.10;;
18263;SDS011;9258;48.668;9.172;2022-07-30T18:00:43;2.35;;;1.20;;
18263;SDS011;9258;48.668;9.172;2022-07-30T18:03:44;1.10;;;1.00;;
18263;SDS011;9258;48.668;9.172;2022-07-30T18:06:46;1.75;;;1.25;;
18263;SDS011;9258;48.668;9.172;2022-07-30T18:09:49;1.30;;;1.20;;
18263;SDS011;9258;48.668;9.172;2022-07-30T18:12:51;1.45;;;1.00;;
18263;SDS011;9258;48.668;9.172;2022-07-30T18:15:54;2.88;;;1.08;;
18263;SDS011;9258;48.668;9.172;2022-07-30T18:18:55;2.28;;;1.13;;
18263;SDS011;9258;48.668;9.172;2022-07-30T18:21:57;1.00;;;0.90;;
18263;SDS011;9258;48.668;9.172;2022-07-30T18:24:58;1.05;;;0.90;;
18263;SDS011;9258;48.668;9.172;2022-07-30T18:28:00;4.57;;;1.15;;
18263;SDS011;9258;48.668;9.172;2022-07-30T18:31:03;1.38;;;1.20;;
18263;SDS011;9258;48.668;9.172;2022-07-30T18:34:04;3.33;;;1.10;;
18263;SDS011;9258;48.668;9.172;2022-07-30T18:37:06;1.58;;;1.10;;
18263;SDS011;9258;48.668;9.172;2022-07-30T18:40:08;0.73;;;0.60;;
18263;SDS011;9258;48.668;9.172;2022-07-30T18:43:10;1.52;;;0.90;;